createdAt,value
2019-02-04T00:00:25.003Z,0
2019-02-04T00:01:28.034Z,0
2019-02-04T00:02:30.666Z,0
2019-02-04T00:03:33.127Z,0
2019-02-04T00:04:35.292Z,0
2019-02-04T00:05:37.525Z,0
2019-02-04T00:06:39.735Z,0
2019-02-04T00:07:41.782Z,0
2019-02-04T00:08:43.844Z,0
2019-02-04T00:09:45.895Z,0
2019-02-04T00:10:47.929Z,0
2019-02-04T00:11:50.288Z,0
2019-02-04T00:12:53.342Z,0
2019-02-04T00:13:55.517Z,0
2019-02-04T00:14:57.598Z,0
2019-02-04T00:15:59.715Z,0
2019-02-04T00:17:02.078Z,0
2019-02-04T00:18:04.117Z,0
2019-02-04T00:19:06.290Z,0
2019-02-04T00:20:08.330Z,0
2019-02-04T00:21:11.066Z,0
2019-02-04T00:22:13.115Z,0
2019-02-04T00:23:15.532Z,0
2019-02-04T00:24:19.084Z,0
2019-02-04T00:25:23.552Z,0
2019-02-04T00:26:25.766Z,0
2019-02-04T00:27:28.212Z,0
2019-02-04T00:28:30.290Z,0
2019-02-04T00:29:32.329Z,0
2019-02-04T00:30:34.449Z,0
2019-02-04T00:31:36.907Z,0
2019-02-04T00:32:38.956Z,0
2019-02-04T00:33:41.296Z,0
2019-02-04T00:34:43.340Z,0
2019-02-04T00:35:46.561Z,0
2019-02-04T00:36:48.907Z,0
2019-02-04T00:37:51.115Z,0
2019-02-04T00:38:53.185Z,0
2019-02-04T00:39:55.613Z,0
2019-02-04T00:40:57.857Z,0
2019-02-04T00:42:00.304Z,0
2019-02-04T00:43:02.924Z,0
2019-02-04T00:44:05.336Z,0
2019-02-04T00:45:07.403Z,0
2019-02-04T00:46:09.738Z,0
2019-02-04T00:47:12.995Z,0
2019-02-04T00:48:15.374Z,0
2019-02-04T00:49:17.801Z,0
2019-02-04T00:50:19.930Z,0
2019-02-04T00:51:21.977Z,0
2019-02-04T00:52:24.042Z,0
2019-02-04T00:53:26.069Z,0
2019-02-04T00:54:28.195Z,0
2019-02-04T00:55:30.259Z,0
2019-02-04T00:56:32.717Z,0
2019-02-04T00:57:35.964Z,0
2019-02-04T00:58:38.534Z,0
2019-02-04T00:59:40.965Z,0
2019-02-04T01:00:43.111Z,0
2019-02-04T01:01:45.480Z,0
2019-02-04T01:02:47.539Z,0
2019-02-04T01:03:49.582Z,0
2019-02-04T01:04:51.646Z,0
2019-02-04T01:05:54.037Z,0
2019-02-04T01:06:56.070Z,0
2019-02-04T01:07:58.111Z,0
2019-02-04T01:09:01.800Z,0
2019-02-04T01:10:04.350Z,0
2019-02-04T01:11:06.719Z,0
2019-02-04T01:12:08.759Z,0
2019-02-04T01:13:10.789Z,0
2019-02-04T01:14:12.886Z,0
2019-02-04T01:15:14.925Z,0
2019-02-04T01:16:16.969Z,0
2019-02-04T01:17:19.020Z,0
2019-02-04T01:18:21.053Z,0
2019-02-04T01:19:23.242Z,0
2019-02-04T01:20:26.790Z,0
2019-02-04T01:21:29.272Z,0
2019-02-04T01:22:31.307Z,0
2019-02-04T01:23:33.362Z,0
2019-02-04T01:24:35.720Z,0
2019-02-04T01:25:38.161Z,0
2019-02-04T01:26:40.222Z,0
2019-02-04T01:27:42.428Z,0
2019-02-04T01:28:44.470Z,0
2019-02-04T01:29:46.513Z,0
2019-02-04T01:30:48.586Z,0
2019-02-04T01:31:52.057Z,0
2019-02-04T01:32:54.391Z,0
2019-02-04T01:33:56.451Z,0
2019-02-04T01:34:58.480Z,0
2019-02-04T01:36:00.621Z,0
2019-02-04T01:37:02.663Z,0
2019-02-04T01:38:04.821Z,0
2019-02-04T01:39:06.866Z,0
2019-02-04T01:40:08.923Z,0
2019-02-04T01:41:11.359Z,0
2019-02-04T01:42:13.583Z,0
2019-02-04T01:43:17.009Z,0
2019-02-04T01:44:19.307Z,0
2019-02-04T01:45:21.644Z,0
2019-02-04T01:46:23.699Z,0
2019-02-04T01:47:26.026Z,0
2019-02-04T01:48:28.421Z,0
2019-02-04T01:49:30.818Z,0
2019-02-04T01:50:33.347Z,0
2019-02-04T01:51:35.737Z,0
2019-02-04T01:52:37.881Z,0
2019-02-04T01:53:40.193Z,0
2019-02-04T01:54:43.443Z,0
2019-02-04T01:55:45.914Z,0
2019-02-04T01:56:47.986Z,0
2019-02-04T01:57:50.793Z,0
2019-02-04T01:58:53.218Z,0
2019-02-04T01:59:55.285Z,0
2019-02-04T02:00:57.313Z,0
2019-02-04T02:01:59.424Z,0
2019-02-04T02:03:01.629Z,0
2019-02-04T02:04:03.704Z,0
2019-02-04T02:05:06.897Z,0
2019-02-04T02:06:09.653Z,0
2019-02-04T02:07:11.969Z,0
2019-02-04T02:08:14.050Z,0
2019-02-04T02:09:16.128Z,0
2019-02-04T02:10:18.186Z,0
2019-02-04T02:11:20.216Z,0
2019-02-04T02:12:22.259Z,0
2019-02-04T02:13:24.312Z,0
2019-02-04T02:14:26.463Z,0
2019-02-04T02:15:28.502Z,0
2019-02-04T02:16:31.299Z,0
2019-02-04T02:17:34.007Z,0
2019-02-04T02:18:36.339Z,0
2019-02-04T02:19:38.480Z,0
2019-02-04T02:20:40.679Z,0
2019-02-04T02:21:42.741Z,0
2019-02-04T02:22:44.793Z,0
2019-02-04T02:23:46.903Z,0
2019-02-04T02:24:49.386Z,0
2019-02-04T02:25:51.422Z,0
2019-02-04T02:26:53.462Z,0
2019-02-04T02:27:56.573Z,0
2019-02-04T02:28:59.084Z,0
2019-02-04T02:30:01.644Z,0
2019-02-04T02:31:03.989Z,0
2019-02-04T02:32:06.747Z,0
2019-02-04T02:33:08.825Z,0
2019-02-04T02:34:11.159Z,0
2019-02-04T02:35:13.202Z,0
2019-02-04T02:36:15.237Z,0
2019-02-04T02:37:17.493Z,0
2019-02-04T02:38:19.970Z,0
2019-02-04T02:39:23.359Z,0
2019-02-04T02:40:25.677Z,0
2019-02-04T02:41:28.007Z,0
2019-02-04T02:42:30.088Z,0
2019-02-04T02:43:32.950Z,0
2019-02-04T02:44:34.987Z,0
2019-02-04T02:45:37.316Z,0
2019-02-04T02:46:39.747Z,0
2019-02-04T02:47:41.796Z,0
2019-02-04T02:48:44.142Z,0
2019-02-04T02:49:47.086Z,0
2019-02-04T02:50:50.206Z,0
2019-02-04T02:51:52.906Z,0
2019-02-04T02:52:55.284Z,0
2019-02-04T02:53:57.309Z,0
2019-02-04T02:54:59.378Z,0
2019-02-04T02:56:01.437Z,0
2019-02-04T02:57:03.511Z,0
2019-02-04T02:58:05.578Z,0
2019-02-04T02:59:07.605Z,0
2019-02-04T03:00:09.657Z,0
2019-02-04T03:01:12.378Z,0
2019-02-04T03:02:15.010Z,0
2019-02-04T03:03:17.127Z,0
2019-02-04T03:04:19.280Z,0
2019-02-04T03:05:21.356Z,0
2019-02-04T03:06:23.390Z,0
2019-02-04T03:07:25.834Z,0
2019-02-04T03:08:27.886Z,0
2019-02-04T03:09:29.948Z,0
2019-02-04T03:10:32.079Z,0
2019-02-04T03:11:34.143Z,0
2019-02-04T03:12:37.444Z,0
2019-02-04T03:13:39.819Z,0
2019-02-04T03:14:41.844Z,0
2019-02-04T03:15:44.199Z,0
2019-02-04T03:16:46.250Z,0
2019-02-04T03:17:53.918Z,0
2019-02-04T03:18:55.961Z,0
2019-02-04T03:19:58.019Z,0
2019-02-04T03:21:00.078Z,0
2019-02-04T03:22:02.145Z,0
2019-02-04T03:23:04.405Z,0
2019-02-04T03:24:07.072Z,0
2019-02-04T03:25:09.203Z,0
2019-02-04T03:26:11.884Z,0
2019-02-04T03:27:14.214Z,0
2019-02-04T03:28:16.597Z,0
2019-02-04T03:29:18.656Z,0
2019-02-04T03:30:20.765Z,0
2019-02-04T03:31:23.242Z,0
2019-02-04T03:32:25.322Z,0
2019-02-04T03:33:28.243Z,0
2019-02-04T03:34:30.686Z,0
2019-02-04T03:35:34.039Z,0
2019-02-04T03:36:36.290Z,0
2019-02-04T03:37:38.323Z,0
2019-02-04T03:38:40.652Z,0
2019-02-04T03:39:42.720Z,0
2019-02-04T03:40:45.159Z,0
2019-02-04T03:41:47.204Z,0
2019-02-04T03:42:49.838Z,0
2019-02-04T03:43:51.872Z,0
2019-02-04T03:44:53.927Z,0
2019-02-04T03:45:56.008Z,0
2019-02-04T03:46:59.178Z,0
2019-02-04T03:48:11.000Z,0
2019-02-04T03:49:14.818Z,0
2019-02-04T03:50:17.234Z,0
2019-02-04T03:51:19.308Z,0
2019-02-04T03:52:21.347Z,0
2019-02-04T03:53:23.684Z,0
2019-02-04T03:54:25.746Z,0
2019-02-04T03:55:27.785Z,0
2019-02-04T03:56:29.822Z,0
2019-02-04T03:57:31.894Z,0
2019-02-04T03:58:33.943Z,0
2019-02-04T03:59:36.462Z,0
2019-02-04T04:00:39.908Z,0
2019-02-04T04:01:42.228Z,0
2019-02-04T04:02:44.261Z,0
2019-02-04T04:03:46.305Z,0
2019-02-04T04:04:48.351Z,0
2019-02-04T04:05:50.703Z,0
2019-02-04T04:06:52.751Z,0
2019-02-04T04:07:55.158Z,0
2019-02-04T04:08:57.199Z,0
2019-02-04T04:09:59.256Z,0
2019-02-04T04:11:01.685Z,0
2019-02-04T04:12:04.870Z,0
2019-02-04T04:13:07.204Z,0
2019-02-04T04:14:09.534Z,0
2019-02-04T04:15:11.968Z,0
2019-02-04T04:16:14.004Z,0
2019-02-04T04:17:16.077Z,0
2019-02-04T04:18:18.126Z,0
2019-02-04T04:19:20.193Z,0
2019-02-04T04:20:22.259Z,0
2019-02-04T04:21:24.304Z,0
2019-02-04T04:22:27.708Z,0
2019-02-04T04:23:30.092Z,0
2019-02-04T04:24:32.121Z,0
2019-02-04T04:25:34.460Z,0
2019-02-04T04:26:36.640Z,0
2019-02-04T04:27:38.688Z,0
2019-02-04T04:28:40.719Z,0
2019-02-04T04:29:42.773Z,0
2019-02-04T04:30:44.829Z,0
2019-02-04T04:31:46.881Z,0
2019-02-04T04:32:49.711Z,0
2019-02-04T04:33:52.840Z,0
2019-02-04T04:34:55.107Z,0
2019-02-04T04:35:57.144Z,0
2019-02-04T04:36:59.194Z,0
2019-02-04T04:38:01.516Z,0
2019-02-04T04:39:03.588Z,0
2019-02-04T04:40:05.655Z,0
2019-02-04T04:41:08.017Z,0
2019-02-04T04:42:10.037Z,0
2019-02-04T04:43:12.145Z,0
2019-02-04T04:44:15.371Z,0
2019-02-04T04:45:17.685Z,0
2019-02-04T04:46:19.762Z,0
2019-02-04T04:47:21.785Z,0
2019-02-04T04:48:28.038Z,0
2019-02-04T04:49:30.075Z,0
2019-02-04T04:50:32.820Z,0
2019-02-04T04:51:35.263Z,0
2019-02-04T04:52:37.715Z,0
2019-02-04T04:53:39.776Z,0
2019-02-04T04:54:41.818Z,0
2019-02-04T04:55:44.274Z,0
2019-02-04T04:56:47.607Z,0
2019-02-04T04:57:49.947Z,0
2019-02-04T04:58:52.274Z,0
2019-02-04T04:59:54.334Z,0
2019-02-04T05:00:56.389Z,0
2019-02-04T05:01:58.446Z,0
2019-02-04T05:03:00.500Z,0
2019-02-04T05:04:02.851Z,0
2019-02-04T05:05:04.911Z,0
2019-02-04T05:06:06.975Z,0
2019-02-04T05:07:10.013Z,0
2019-02-04T05:08:12.356Z,0
2019-02-04T05:09:14.400Z,0
2019-02-04T05:10:16.584Z,0
2019-02-04T05:11:18.652Z,0
2019-02-04T05:12:20.689Z,0
2019-02-04T05:13:23.325Z,0
2019-02-04T05:14:25.360Z,0
2019-02-04T05:15:27.719Z,0
2019-02-04T05:16:29.877Z,0
2019-02-04T05:17:31.921Z,0
2019-02-04T05:18:39.795Z,0
2019-02-04T05:19:43.194Z,0
2019-02-04T05:20:45.514Z,0
2019-02-04T05:21:47.853Z,0
2019-02-04T05:22:49.908Z,0
2019-02-04T05:23:51.942Z,0
2019-02-04T05:24:54.006Z,0
2019-02-04T05:25:56.164Z,0
2019-02-04T05:26:58.208Z,0
2019-02-04T05:28:00.264Z,0
2019-02-04T05:29:02.296Z,0
2019-02-04T05:30:04.350Z,0
2019-02-04T05:31:07.443Z,0
2019-02-04T05:32:09.779Z,0
2019-02-04T05:33:11.811Z,0
2019-02-04T05:34:13.867Z,0
2019-02-04T05:35:16.251Z,0
2019-02-04T05:36:18.305Z,0
2019-02-04T05:37:20.376Z,0
2019-02-04T05:38:22.414Z,0
2019-02-04T05:39:24.577Z,0
2019-02-04T05:40:26.643Z,0
2019-02-04T05:41:29.522Z,0
2019-02-04T05:42:35.963Z,0
2019-02-04T05:43:38.622Z,0
2019-02-04T05:44:40.778Z,0
2019-02-04T05:45:42.811Z,0
2019-02-04T05:46:45.902Z,0
2019-02-04T05:47:48.295Z,0
2019-02-04T05:48:51.027Z,0
2019-02-04T05:49:53.357Z,0
2019-02-04T05:50:55.405Z,0
2019-02-04T05:51:57.730Z,0
2019-02-04T05:52:59.771Z,0
2019-02-04T05:54:03.122Z,0
2019-02-04T05:55:05.450Z,0
2019-02-04T05:56:07.496Z,0
2019-02-04T05:57:09.524Z,0
2019-02-04T05:58:11.595Z,0
2019-02-04T05:59:13.632Z,0
2019-02-04T06:00:15.758Z,0
2019-02-04T06:01:18.320Z,0
2019-02-04T06:02:20.357Z,0
2019-02-04T06:03:22.397Z,0
2019-02-04T06:04:25.536Z,0
2019-02-04T06:05:27.806Z,0
2019-02-04T06:06:30.411Z,0
2019-02-04T06:07:32.464Z,0
2019-02-04T06:08:34.521Z,0
2019-02-04T06:09:36.920Z,0
2019-02-04T06:10:38.993Z,0
2019-02-04T06:11:41.043Z,0
2019-02-04T06:12:43.067Z,0
2019-02-04T06:13:45.414Z,0
2019-02-04T06:14:47.454Z,0
2019-02-04T06:15:51.026Z,0
2019-02-04T06:16:53.299Z,0
2019-02-04T06:17:55.328Z,0
2019-02-04T06:19:02.384Z,0
2019-02-04T06:20:04.516Z,0
2019-02-04T06:21:06.583Z,0
2019-02-04T06:22:08.924Z,0
2019-02-04T06:23:10.976Z,0
2019-02-04T06:24:13.031Z,0
2019-02-04T06:25:15.918Z,0
2019-02-04T06:26:18.204Z,0
2019-02-04T06:27:21.319Z,0
2019-02-04T06:28:26.400Z,0
2019-02-04T06:29:28.680Z,0
2019-02-04T06:30:30.738Z,0
2019-02-04T06:31:33.060Z,0
2019-02-04T06:32:36.107Z,0
2019-02-04T06:33:38.196Z,0
2019-02-04T06:34:40.232Z,0
2019-02-04T06:35:42.290Z,0
2019-02-04T06:36:44.331Z,0
2019-02-04T06:37:48.538Z,0
2019-02-04T06:38:50.701Z,0
2019-02-04T06:39:53.910Z,0
2019-02-04T06:40:56.236Z,0
2019-02-04T06:41:58.281Z,0
2019-02-04T06:43:00.322Z,0
2019-02-04T06:44:02.352Z,0
2019-02-04T06:45:04.790Z,0
2019-02-04T06:46:06.851Z,0
2019-02-04T06:47:08.880Z,0
2019-02-04T06:48:10.958Z,0
2019-02-04T06:49:14.287Z,1
2019-02-04T06:50:16.352Z,1
2019-02-04T06:51:19.470Z,1
2019-02-04T06:52:21.720Z,1
2019-02-04T06:53:24.540Z,1
2019-02-04T06:54:26.576Z,1
2019-02-04T06:55:28.926Z,1
2019-02-04T06:56:30.988Z,1
2019-02-04T06:57:33.028Z,2
2019-02-04T06:58:35.072Z,2
2019-02-04T06:59:37.494Z,2
2019-02-04T07:00:39.539Z,2
2019-02-04T07:01:42.495Z,2
2019-02-04T07:02:44.893Z,2
2019-02-04T07:03:47.435Z,3
2019-02-04T07:04:49.767Z,3
2019-02-04T07:05:51.804Z,3
2019-02-04T07:06:53.865Z,3
2019-02-04T07:07:56.175Z,4
2019-02-04T07:08:58.232Z,4
2019-02-04T07:10:00.494Z,4
2019-02-04T07:11:02.527Z,4
2019-02-04T07:12:05.670Z,5
2019-02-04T07:13:08.243Z,5
2019-02-04T07:14:10.818Z,5
2019-02-04T07:15:12.939Z,6
2019-02-04T07:16:15.019Z,6
2019-02-04T07:17:17.432Z,7
2019-02-04T07:18:19.490Z,7
2019-02-04T07:19:25.904Z,7
2019-02-04T07:20:28.340Z,8
2019-02-04T07:21:30.456Z,9
2019-02-04T07:22:32.518Z,11
2019-02-04T07:23:34.850Z,12
2019-02-04T07:24:44.360Z,13
2019-02-04T07:25:47.742Z,15
2019-02-04T07:26:50.117Z,15
2019-02-04T07:27:52.436Z,13
2019-02-04T07:28:54.561Z,15
2019-02-04T07:29:56.631Z,15
2019-02-04T07:30:58.677Z,14
2019-02-04T07:32:00.830Z,15
2019-02-04T07:33:02.871Z,19
2019-02-04T07:34:04.927Z,24
2019-02-04T07:35:07.259Z,29
2019-02-04T07:36:10.572Z,32
2019-02-04T07:37:12.924Z,34
2019-02-04T07:38:14.996Z,35
2019-02-04T07:39:17.343Z,37
2019-02-04T07:40:19.404Z,39
2019-02-04T07:41:21.560Z,38
2019-02-04T07:42:23.644Z,38
2019-02-04T07:43:25.704Z,41
2019-02-04T07:44:27.827Z,44
2019-02-04T07:45:30.185Z,45
2019-02-04T07:46:33.078Z,43
2019-02-04T07:47:35.429Z,39
2019-02-04T07:48:37.755Z,44
2019-02-04T07:49:40.084Z,53
2019-02-04T07:50:42.783Z,54
2019-02-04T07:51:44.964Z,56
2019-02-04T07:52:47.032Z,57
2019-02-04T07:53:49.068Z,59
2019-02-04T07:54:51.133Z,61
2019-02-04T07:55:53.470Z,62
2019-02-04T07:56:55.507Z,62
2019-02-04T07:58:00.020Z,66
2019-02-04T07:59:03.115Z,67
2019-02-04T08:00:05.518Z,70
2019-02-04T08:01:07.593Z,70
2019-02-04T08:02:09.690Z,71
2019-02-04T08:03:14.943Z,68
2019-02-04T08:04:17.190Z,74
2019-02-04T08:05:19.276Z,74
2019-02-04T08:06:21.420Z,68
2019-02-04T08:07:23.465Z,77
2019-02-04T08:08:25.642Z,76
2019-02-04T08:09:28.639Z,74
2019-02-04T08:10:31.603Z,66
2019-02-04T08:11:34.275Z,75
2019-02-04T08:12:36.306Z,81
2019-02-04T08:13:38.348Z,80
2019-02-04T08:14:40.412Z,85
2019-02-04T08:15:42.591Z,76
2019-02-04T08:16:44.645Z,92
2019-02-04T08:17:46.676Z,90
2019-02-04T08:18:48.723Z,89
2019-02-04T08:19:50.777Z,79
2019-02-04T08:20:54.039Z,97
2019-02-04T08:21:56.281Z,102
2019-02-04T08:22:58.393Z,95
2019-02-04T08:24:00.418Z,63
2019-02-04T08:25:02.752Z,114
2019-02-04T08:26:04.840Z,113
2019-02-04T08:27:06.868Z,114
2019-02-04T08:28:08.948Z,102
2019-02-04T08:29:11.022Z,92
2019-02-04T08:30:13.379Z,82
2019-02-04T08:31:15.926Z,75
2019-02-04T08:32:19.116Z,81
2019-02-04T08:33:21.607Z,94
2019-02-04T08:34:23.952Z,93
2019-02-04T08:35:26.082Z,95
2019-02-04T08:36:47.883Z,97
2019-02-04T08:37:50.572Z,107
2019-02-04T08:38:52.774Z,117
2019-02-04T08:39:55.003Z,116
2019-02-04T08:40:57.182Z,117
2019-02-04T08:41:59.357Z,114
2019-02-04T08:43:01.544Z,116
2019-02-04T08:44:04.005Z,113
2019-02-04T08:45:06.727Z,113
2019-02-04T08:46:09.516Z,117
2019-02-04T08:47:25.450Z,121
2019-02-04T08:48:28.922Z,115
2019-02-04T08:49:31.769Z,118
2019-02-04T08:50:34.327Z,121
2019-02-04T08:51:36.528Z,122
2019-02-04T08:52:39.286Z,125
2019-02-04T08:53:41.494Z,124
2019-02-04T08:54:43.703Z,129
2019-02-04T08:55:45.935Z,137
2019-02-04T08:56:48.128Z,138
2019-02-04T08:57:50.326Z,135
2019-02-04T08:58:53.521Z,154
2019-02-04T08:59:56.059Z,127
2019-02-04T09:00:58.543Z,142
2019-02-04T09:02:00.710Z,139
2019-02-04T09:03:02.902Z,140
2019-02-04T09:04:05.110Z,134
2019-02-04T09:05:07.267Z,140
2019-02-04T09:06:09.465Z,137
2019-02-04T09:07:11.645Z,132
2019-02-04T09:08:13.858Z,129
2019-02-04T09:09:17.173Z,135
2019-02-04T09:10:19.628Z,131
2019-02-04T09:11:21.812Z,137
2019-02-04T09:12:24.401Z,145
2019-02-04T09:13:26.592Z,145
2019-02-04T09:14:28.755Z,146
2019-02-04T09:15:31.048Z,142
2019-02-04T09:16:33.268Z,145
2019-02-04T09:17:35.766Z,152
2019-02-04T09:18:46.312Z,153
2019-02-04T09:19:48.478Z,153
2019-02-04T09:20:50.697Z,163
2019-02-04T09:21:53.984Z,159
2019-02-04T09:22:56.496Z,162
2019-02-04T09:23:58.688Z,160
2019-02-04T09:25:00.983Z,162
2019-02-04T09:26:03.456Z,166
2019-02-04T09:27:05.642Z,165
2019-02-04T09:28:08.099Z,161
2019-02-04T09:29:10.301Z,157
2019-02-04T09:30:12.486Z,158
2019-02-04T09:31:14.957Z,159
2019-02-04T09:32:18.287Z,166
2019-02-04T09:33:20.735Z,178
2019-02-04T09:34:22.928Z,173
2019-02-04T09:35:25.128Z,160
2019-02-04T09:36:27.318Z,167
2019-02-04T09:37:29.770Z,169
2019-02-04T09:38:31.939Z,168
2019-02-04T09:39:34.182Z,174
2019-02-04T09:40:36.442Z,169
2019-02-04T09:41:38.627Z,166
2019-02-04T09:42:41.783Z,167
2019-02-04T09:43:44.337Z,172
2019-02-04T09:44:46.873Z,173
2019-02-04T09:45:49.027Z,171
2019-02-04T09:46:51.211Z,173
2019-02-04T09:47:53.414Z,180
2019-02-04T09:50:53.325Z,177
2019-02-04T09:51:55.487Z,171
2019-02-04T09:52:59.090Z,173
2019-02-04T09:54:01.863Z,184
2019-02-04T09:55:19.414Z,186
2019-02-04T09:56:22.437Z,186
2019-02-04T09:57:24.692Z,182
2019-02-04T09:58:26.854Z,178
2019-02-04T09:59:29.304Z,150
2019-02-04T10:00:32.115Z,182
2019-02-04T10:01:34.390Z,186
2019-02-04T10:02:36.569Z,182
2019-02-04T10:03:38.726Z,185
2019-02-04T10:04:40.861Z,185
2019-02-04T10:05:43.026Z,180
2019-02-04T10:06:46.237Z,175
2019-02-04T10:07:49.093Z,178
2019-02-04T10:08:51.674Z,188
2019-02-04T10:09:53.814Z,183
2019-02-04T10:10:55.970Z,180
2019-02-04T10:11:58.523Z,182
2019-02-04T10:13:00.685Z,183
2019-02-04T10:14:02.864Z,182
2019-02-04T10:15:05.835Z,193
2019-02-04T10:16:08.133Z,187
2019-02-04T10:17:10.593Z,185
2019-02-04T10:18:13.451Z,174
2019-02-04T10:19:16.903Z,182
2019-02-04T10:20:19.907Z,184
2019-02-04T10:21:22.470Z,187
2019-02-04T10:22:24.816Z,180
2019-02-04T10:23:27.995Z,190
2019-02-04T10:24:30.535Z,187
2019-02-04T10:25:33.050Z,185
2019-02-04T10:26:35.317Z,191
2019-02-04T10:27:37.574Z,192
2019-02-04T10:28:39.889Z,200
2019-02-04T10:29:42.238Z,203
2019-02-04T10:30:46.167Z,202
2019-02-04T10:31:48.829Z,191
2019-02-04T10:32:51.114Z,197
2019-02-04T10:33:53.622Z,194
2019-02-04T10:34:56.322Z,209
2019-02-04T10:35:58.779Z,203
2019-02-04T10:37:00.982Z,197
2019-02-04T10:38:03.491Z,191
2019-02-04T10:39:06.183Z,190
2019-02-04T10:40:08.729Z,179
2019-02-04T10:41:11.040Z,184
2019-02-04T10:42:14.811Z,190
2019-02-04T10:43:17.813Z,186
2019-02-04T10:44:20.134Z,175
2019-02-04T10:45:22.756Z,168
2019-02-04T10:46:25.371Z,180
2019-02-04T10:47:27.665Z,180
2019-02-04T10:48:30.374Z,174
2019-02-04T10:49:32.810Z,182
2019-02-04T10:50:48.383Z,182
2019-02-04T10:51:50.785Z,168
2019-02-04T10:52:53.404Z,173
2019-02-04T10:53:55.775Z,174
2019-02-04T10:54:58.321Z,169
2019-02-04T10:56:02.204Z,172
2019-02-04T10:57:04.652Z,173
2019-02-04T10:58:06.955Z,162
2019-02-04T10:59:09.281Z,163
2019-02-04T11:00:11.630Z,166
2019-02-04T11:01:13.946Z,161
2019-02-04T11:02:16.364Z,157
2019-02-04T11:03:21.685Z,159
2019-02-04T11:04:24.019Z,154
2019-02-04T11:05:26.400Z,156
2019-02-04T11:06:28.840Z,154
2019-02-04T11:07:32.854Z,156
2019-02-04T11:08:35.347Z,155
2019-02-04T11:09:37.917Z,160
2019-02-04T11:10:40.573Z,154
2019-02-04T11:11:42.909Z,155
2019-02-04T11:14:42.913Z,147
2019-02-04T11:15:45.470Z,139
2019-02-04T11:16:47.769Z,137
2019-02-04T11:17:51.291Z,142
2019-02-04T11:18:54.270Z,141
2019-02-04T11:19:57.198Z,138
2019-02-04T11:21:00.097Z,134
2019-02-04T11:22:03.125Z,135
2019-02-04T11:23:05.445Z,127
2019-02-04T11:24:07.708Z,126
2019-02-04T11:25:10.088Z,125
2019-02-04T11:26:12.501Z,123
2019-02-04T11:27:14.782Z,119
2019-02-04T11:28:18.104Z,118
2019-02-04T11:29:20.648Z,117
2019-02-04T11:30:24.106Z,117
2019-02-04T11:31:27.104Z,117
2019-02-04T11:32:29.666Z,117
2019-02-04T11:33:32.099Z,114
2019-02-04T11:34:34.686Z,111
2019-02-04T11:35:37.053Z,113
2019-02-04T11:36:39.307Z,113
2019-02-04T11:37:41.870Z,110
2019-02-04T11:38:44.302Z,111
2019-02-04T11:39:47.051Z,109
2019-02-04T11:40:49.616Z,108
2019-02-04T11:41:53.260Z,107
2019-02-04T11:42:56.146Z,105
2019-02-04T11:43:59.028Z,103
2019-02-04T11:45:01.538Z,105
2019-02-04T11:46:05.040Z,105
2019-02-04T11:47:07.460Z,102
2019-02-04T11:48:09.916Z,104
2019-02-04T11:49:12.465Z,105
2019-02-04T11:50:14.604Z,106
2019-02-04T11:51:16.755Z,107
2019-02-04T11:52:19.016Z,108
2019-02-04T11:53:34.554Z,108
2019-02-04T11:54:36.704Z,109
2019-02-04T11:55:40.093Z,109
2019-02-04T11:56:42.512Z,108
2019-02-04T11:57:45.039Z,107
2019-02-04T11:58:47.192Z,109
2019-02-04T11:59:49.352Z,108
2019-02-04T12:00:51.499Z,107
2019-02-04T12:01:53.649Z,104
2019-02-04T12:02:56.070Z,103
2019-02-04T12:03:58.217Z,101
2019-02-04T12:05:00.431Z,98
2019-02-04T12:06:02.876Z,96
2019-02-04T12:07:06.472Z,94
2019-02-04T12:08:09.337Z,93
2019-02-04T12:09:11.493Z,92
2019-02-04T12:10:13.632Z,91
2019-02-04T12:11:15.790Z,91
2019-02-04T12:12:17.937Z,90
2019-02-04T12:13:20.225Z,90
2019-02-04T12:14:22.371Z,88
2019-02-04T12:15:24.654Z,84
2019-02-04T12:16:26.817Z,80
2019-02-04T12:17:29.546Z,73
2019-02-04T12:18:31.914Z,70
2019-02-04T12:19:34.439Z,67
2019-02-04T12:20:40.193Z,63
2019-02-04T12:21:42.445Z,61
2019-02-04T12:22:44.602Z,59
2019-02-04T12:23:46.853Z,59
2019-02-04T12:24:48.991Z,59
2019-02-04T12:25:51.140Z,59
2019-02-04T12:26:53.548Z,59
2019-02-04T12:27:56.015Z,60
2019-02-04T12:28:59.365Z,61
2019-02-04T12:30:03.183Z,61
2019-02-04T12:31:05.610Z,61
2019-02-04T12:32:07.737Z,61
2019-02-04T12:33:10.306Z,61
2019-02-04T12:34:12.439Z,61
2019-02-04T12:35:14.590Z,61
2019-02-04T12:36:17.343Z,61
2019-02-04T12:37:19.771Z,62
2019-02-04T12:38:22.010Z,61
2019-02-04T12:39:24.150Z,61
2019-02-04T12:40:26.956Z,61
2019-02-04T12:41:29.468Z,60
2019-02-04T12:42:32.330Z,60
2019-02-04T12:43:34.605Z,59
2019-02-04T12:44:36.843Z,60
2019-02-04T12:45:38.978Z,61
2019-02-04T12:46:41.512Z,62
2019-02-04T12:47:43.684Z,63
2019-02-04T12:48:45.816Z,63
2019-02-04T12:49:48.342Z,63
2019-02-04T12:50:50.862Z,62
2019-02-04T12:51:54.170Z,61
2019-02-04T12:52:56.587Z,61
2019-02-04T12:53:58.724Z,61
2019-02-04T12:55:01.352Z,61
2019-02-04T12:56:03.510Z,60
2019-02-04T12:57:05.653Z,59
2019-02-04T12:58:08.105Z,56
2019-02-04T12:59:10.257Z,55
2019-02-04T13:00:12.397Z,55
2019-02-04T13:01:14.545Z,53
2019-02-04T13:02:16.691Z,52
2019-02-04T13:03:19.987Z,52
2019-02-04T13:04:22.790Z,52
2019-02-04T13:05:24.965Z,52
2019-02-04T13:06:27.110Z,52
2019-02-04T13:07:29.532Z,52
2019-02-04T13:08:31.703Z,52
2019-02-04T13:09:33.904Z,51
2019-02-04T13:10:36.054Z,50
2019-02-04T13:11:38.216Z,50
2019-02-04T13:12:40.633Z,50
2019-02-04T13:13:42.784Z,48
2019-02-04T13:14:46.575Z,47
2019-02-04T13:15:49.107Z,46
2019-02-04T13:16:51.239Z,45
2019-02-04T13:17:53.388Z,44
2019-02-04T13:18:56.097Z,43
2019-02-04T13:19:58.939Z,43
2019-02-04T13:21:01.112Z,42
2019-02-04T13:22:03.526Z,41
2019-02-04T13:23:05.794Z,40
2019-02-04T13:24:07.960Z,39
2019-02-04T13:25:11.063Z,38
2019-02-04T13:26:13.785Z,37
2019-02-04T13:27:16.285Z,36
2019-02-04T13:28:18.731Z,35
2019-02-04T13:29:21.025Z,35
2019-02-04T13:30:23.442Z,34
2019-02-04T13:31:25.631Z,33
2019-02-04T13:32:27.783Z,33
2019-02-04T13:33:30.193Z,33
2019-02-04T13:34:32.353Z,32
2019-02-04T13:35:34.503Z,32
2019-02-04T13:36:37.334Z,31
2019-02-04T13:37:40.156Z,31
2019-02-04T13:38:42.664Z,30
2019-02-04T13:39:45.391Z,30
2019-02-04T13:40:47.545Z,29
2019-02-04T13:41:49.695Z,29
2019-02-04T13:42:51.828Z,29
2019-02-04T13:43:53.967Z,28
2019-02-04T13:44:56.530Z,28
2019-02-04T13:45:58.706Z,28
2019-02-04T13:47:01.458Z,28
2019-02-04T13:48:04.909Z,28
2019-02-04T13:49:08.303Z,28
2019-02-04T13:50:10.801Z,28
2019-02-04T13:51:12.969Z,28
2019-02-04T13:52:17.128Z,28
2019-02-04T13:53:19.330Z,28
2019-02-04T13:54:21.511Z,28
2019-02-04T13:55:23.675Z,28
2019-02-04T13:56:25.846Z,27
2019-02-04T13:57:28.154Z,27
2019-02-04T13:58:30.380Z,26
2019-02-04T13:59:33.318Z,26
2019-02-04T14:00:36.845Z,25
2019-02-04T14:01:39.292Z,24
2019-02-04T14:02:41.963Z,24
2019-02-04T14:03:44.158Z,23
2019-02-04T14:04:46.324Z,23
2019-02-04T14:05:48.757Z,23
2019-02-04T14:06:50.968Z,22
2019-02-04T14:07:53.818Z,21
2019-02-04T14:08:56.017Z,21
2019-02-04T14:10:00.798Z,21
2019-02-04T14:11:02.931Z,21
2019-02-04T14:12:06.638Z,21
2019-02-04T14:13:10.038Z,21
2019-02-04T14:14:12.602Z,20
2019-02-04T14:15:14.743Z,20
2019-02-04T14:16:16.924Z,19
2019-02-04T14:17:19.077Z,19
2019-02-04T14:18:27.805Z,19
2019-02-04T14:19:29.977Z,18
2019-02-04T14:20:32.118Z,18
2019-02-04T14:21:34.275Z,17
2019-02-04T14:22:36.841Z,17
2019-02-04T14:23:39.019Z,17
2019-02-04T14:24:41.730Z,17
2019-02-04T14:25:44.212Z,17
2019-02-04T14:26:46.703Z,17
2019-02-04T14:27:49.222Z,17
2019-02-04T14:28:51.439Z,18
2019-02-04T14:29:53.705Z,18
2019-02-04T14:30:55.898Z,18
2019-02-04T14:31:58.062Z,18
2019-02-04T14:33:00.523Z,19
2019-02-04T14:34:02.667Z,19
2019-02-04T14:35:04.824Z,19
2019-02-04T14:36:07.884Z,19
2019-02-04T14:37:10.450Z,19
2019-02-04T14:38:12.803Z,19
2019-02-04T14:39:14.984Z,19
2019-02-04T14:40:20.689Z,19
2019-02-04T14:41:22.840Z,19
2019-02-04T14:42:24.997Z,19
2019-02-04T14:43:27.162Z,18
2019-02-04T14:44:29.467Z,18
2019-02-04T14:45:31.647Z,18
2019-02-04T14:46:33.788Z,18
2019-02-04T14:47:36.023Z,17
2019-02-04T14:48:39.598Z,17
2019-02-04T14:49:42.295Z,17
2019-02-04T14:50:44.461Z,17
2019-02-04T14:51:46.600Z,16
2019-02-04T14:52:48.784Z,16
2019-02-04T14:53:50.958Z,16
2019-02-04T14:54:53.130Z,16
2019-02-04T14:55:55.288Z,16
2019-02-04T14:56:57.475Z,15
2019-02-04T14:57:59.928Z,15
2019-02-04T14:59:02.073Z,15
2019-02-04T15:00:05.232Z,14
2019-02-04T15:01:08.030Z,14
2019-02-04T15:02:11.154Z,14
2019-02-04T15:03:21.514Z,13
2019-02-04T15:04:23.664Z,13